Woody, California
Current Conditions -  °F | °C
As of 5:54 PM on Monday 24 Nov 2014 (Local Time) from KBFL Reporting Station
Clear Clear  
Wind Chill: 56°   Ceiling: Unl
Heat Index: 56°   Visibility: 9mi
Dew Point: 43°   Wind: 3mph
Humidity: 62%   Direction: 350°N
Pressure: 30.38"   Gusts: NA
Location:  35.66°N, 118.81°W
Report Text: KBFL 250154Z 35003KT 9SM CLR 13/06 A3038 RMK AO2 SLP287 T01330061
Loading
Personal Weather Stations






























Interactive Weather Map New forecast layout! Learn more

10-Day Weather Forecast

Advertisements
Track Severe Weather on mobile